Lochem, Netherlands
Current Conditions -  °F | °C
As of 7:55 AM on Thursday 27 Nov 2014 (Local Time) from EHDL Reporting Station
Haze Haze  
Wind Chill: 41°   Ceiling: 1000
Heat Index: 45°   Visibility: 6mi
Dew Point: 39°   Wind: 7mph
Humidity: 81%   Direction: 140°SE
Pressure: 29.77"   Gusts: NA
Location:  52.16°N, 6.41°E
Report Text: EHDL 270655Z AUTO 14006KT 9000 BR OVC010 07/04 Q1008 GRN
Loading
Personal Weather Stations






























Interactive Weather Map New forecast layout! Learn more

10-Day Weather Forecast

Advertisements
Track Severe Weather on mobile